Time;durP1;ratioP1;P1;durP2;ratioP2;P2;SDS_P1;SDS_P2;PMS_P1;PMS_P2;Temp;Humidity;BMP_temperature;BMP_pressure;BME280_temperature;BME280_humidity;BME280_pressure;Samples;Min_cycle;Max_cycle;Signal;HPM_P1;HPM_P2
2023/04/20 00:02:05;;;;;;;5.75;2.97;;;;;;;;;;4883864;29;20387;-96
2023/04/20 00:04:31;;;;;;;10.43;3.42;;;;;;;;;;4883672;29;20056;-95
2023/04/20 00:06:58;;;;;;;6.93;3.08;;;;;;;;;;4898850;29;20048;-93
2023/04/20 00:09:25;;;;;;;4.95;2.97;;;;;;;;;;4867845;29;20060;-95
2023/04/20 00:11:51;;;;;;;5.03;2.65;;;;;;;;;;4884668;29;20147;-96
2023/04/20 00:14:18;;;;;;;7.00;2.53;;;;;;;;;;4869684;29;20625;-94
2023/04/20 00:16:45;;;;;;;10.35;3.67;;;;;;;;;;4884596;29;20070;-94
2023/04/20 00:19:11;;;;;;;8.32;3.60;;;;;;;;;;4868270;29;20059;-96
2023/04/20 00:21:37;;;;;;;5.72;2.92;;;;;;;;;;4899749;29;20044;-92
2023/04/20 00:24:04;;;;;;;7.15;2.83;;;;;;;;;;4898926;29;20088;-92
2023/04/20 00:26:30;;;;;;;8.63;3.17;;;;;;;;;;4898646;29;20048;-92
2023/04/20 00:28:56;;;;;;;3.10;2.38;;;;;;;;;;4882790;29;20452;-93
2023/04/20 00:31:22;;;;;;;6.05;2.75;;;;;;;;;;4867497;29;20442;-91
2023/04/20 00:33:48;;;;;;;3.92;2.33;;;;;;;;;;4882802;29;20062;-91
2023/04/20 00:36:15;;;;;;;6.22;2.33;;;;;;;;;;4867099;29;20048;-89
2023/04/20 00:38:41;;;;;;;3.30;1.90;;;;;;;;;;4867025;29;20052;-91
2023/04/20 00:41:07;;;;;;;6.90;2.20;;;;;;;;;;4866904;29;20060;-89
2023/04/20 00:43:33;;;;;;;6.60;2.70;;;;;;;;;;4867077;29;20109;-91
2023/04/20 00:45:59;;;;;;;5.95;2.10;;;;;;;;;;4897786;29;20498;-95
2023/04/20 00:48:25;;;;;;;4.18;2.47;;;;;;;;;;4900669;29;20502;-93
2023/04/20 00:50:51;;;;;;;2.08;1.85;;;;;;;;;;4882957;29;20056;-96
2023/04/20 00:53:18;;;;;;;5.35;2.45;;;;;;;;;;4883072;29;20056;-94
2023/04/20 00:55:44;;;;;;;6.65;2.97;;;;;;;;;;4883861;29;20044;-93
2023/04/20 00:58:11;;;;;;;4.88;1.98;;;;;;;;;;4870160;29;20045;-96
2023/04/20 01:00:38;;;;;;;5.18;2.33;;;;;;;;;;4869641;29;20048;-93
2023/04/20 01:03:04;;;;;;;3.50;2.00;;;;;;;;;;4884949;29;20053;-96
2023/04/20 01:05:31;;;;;;;3.00;2.70;;;;;;;;;;4870180;29;20049;-96
2023/04/20 01:07:58;;;;;;;5.00;2.70;;;;;;;;;;4899398;29;20052;-96
2023/04/20 01:10:25;;;;;;;4.82;2.38;;;;;;;;;;4867978;29;20107;-93
2023/04/20 01:12:51;;;;;;;3.53;2.10;;;;;;;;;;4867835;29;20049;-96
2023/04/20 01:15:17;;;;;;;3.42;1.85;;;;;;;;;;4867102;29;20044;-95
2023/04/20 01:17:43;;;;;;;6.40;2.45;;;;;;;;;;4867352;29;20064;-96
2023/04/20 01:20:13;;;;;;;9.48;2.47;;;;;;;;;;4867535;29;20052;-96
2023/04/20 01:22:55;;;;;;;4.82;2.67;;;;;;;;;;4905960;29;20502;-96
2023/04/20 01:25:22;;;;;;;6.05;2.67;;;;;;;;;;4905386;29;20063;-93
2023/04/20 01:27:48;;;;;;;20.45;3.17;;;;;;;;;;4905644;29;20072;-96
2023/04/20 01:30:15;;;;;;;3.80;2.28;;;;;;;;;;4908140;29;20044;-96
2023/04/20 01:32:42;;;;;;;5.82;2.47;;;;;;;;;;4892145;29;20045;-95
2023/04/20 01:35:09;;;;;;;4.22;2.25;;;;;;;;;;4898865;29;20048;-90
2023/04/20 01:37:35;;;;;;;2.63;1.77;;;;;;;;;;4901112;29;20088;-93
2023/04/20 01:40:02;;;;;;;4.55;2.33;;;;;;;;;;4917104;29;20048;-93
2023/04/20 01:42:28;;;;;;;7.22;3.08;;;;;;;;;;4901955;29;20059;-91
2023/04/20 01:44:54;;;;;;;8.63;2.47;;;;;;;;;;4902030;29;20044;-90
2023/04/20 01:47:21;;;;;;;4.53;2.08;;;;;;;;;;4902040;29;20055;-94
2023/04/20 01:49:47;;;;;;;5.75;2.35;;;;;;;;;;4901638;29;20532;-91
2023/04/20 01:52:13;;;;;;;6.03;2.20;;;;;;;;;;4898708;29;20041;-92
2023/04/20 01:54:39;;;;;;;9.65;2.88;;;;;;;;;;4881709;29;20051;-91
2023/04/20 01:57:05;;;;;;;4.45;2.40;;;;;;;;;;4865758;29;20049;-92
2023/04/20 01:59:31;;;;;;;6.82;2.25;;;;;;;;;;4881361;29;20044;-92
2023/04/20 02:01:57;;;;;;;5.25;2.25;;;;;;;;;;4880676;29;20055;-93
2023/04/20 02:04:24;;;;;;;4.70;2.17;;;;;;;;;;4865598;29;20188;-91
2023/04/20 02:06:50;;;;;;;6.78;2.78;;;;;;;;;;4881191;29;20048;-92
2023/04/20 02:09:16;;;;;;;5.15;2.10;;;;;;;;;;4880657;29;20488;-91
2023/04/20 02:11:42;;;;;;;10.32;2.58;;;;;;;;;;4865300;29;20051;-90
2023/04/20 02:14:08;;;;;;;4.57;2.40;;;;;;;;;;4865017;29;20052;-91
2023/04/20 02:16:35;;;;;;;3.75;2.58;;;;;;;;;;4865203;29;20111;-90
2023/04/20 02:19:02;;;;;;;2.88;2.08;;;;;;;;;;4865625;29;20051;-91
2023/04/20 02:21:28;;;;;;;4.60;2.50;;;;;;;;;;4880591;29;20049;-91
2023/04/20 02:23:54;;;;;;;4.22;2.33;;;;;;;;;;4880801;29;20513;-91
2023/04/20 02:26:20;;;;;;;9.15;2.63;;;;;;;;;;4865147;29;20045;-91
2023/04/20 02:28:46;;;;;;;6.10;2.55;;;;;;;;;;4865084;29;20108;-91
2023/04/20 02:31:12;;;;;;;4.18;3.08;;;;;;;;;;4880969;29;20041;-91
2023/04/20 02:33:38;;;;;;;12.93;2.55;;;;;;;;;;4880895;29;20108;-91
2023/04/20 02:36:05;;;;;;;4.53;2.63;;;;;;;;;;4865171;29;20055;-91
2023/04/20 02:38:33;;;;;;;9.23;3.08;;;;;;;;;;4880530;29;20072;-90
2023/04/20 02:41:00;;;;;;;6.88;2.67;;;;;;;;;;4865194;29;20490;-90
2023/04/20 02:43:26;;;;;;;4.28;2.17;;;;;;;;;;4880560;29;20044;-91
2023/04/20 02:45:52;;;;;;;5.40;2.60;;;;;;;;;;4865264;29;20044;-90
2023/04/20 02:48:18;;;;;;;9.40;2.83;;;;;;;;;;4880455;29;20049;-91
2023/04/20 02:50:44;;;;;;;4.22;3.08;;;;;;;;;;4880882;29;20056;-91
2023/04/20 02:53:10;;;;;;;5.78;2.53;;;;;;;;;;4880464;29;20497;-92
2023/04/20 02:55:36;;;;;;;4.90;2.20;;;;;;;;;;4865253;29;20048;-91
2023/04/20 02:58:02;;;;;;;11.05;3.25;;;;;;;;;;4865166;29;20052;-91
2023/04/20 03:00:28;;;;;;;7.25;3.10;;;;;;;;;;4865317;29;20052;-91
2023/04/20 03:02:54;;;;;;;4.70;2.28;;;;;;;;;;4864644;29;20045;-90
2023/04/20 03:05:21;;;;;;;9.43;3.25;;;;;;;;;;4880532;29;20080;-91
2023/04/20 03:07:47;;;;;;;7.55;3.05;;;;;;;;;;4864942;29;20049;-91
2023/04/20 03:10:13;;;;;;;5.22;3.03;;;;;;;;;;4864719;29;20056;-90
2023/04/20 03:12:39;;;;;;;10.90;2.88;;;;;;;;;;4865141;29;20386;-91
2023/04/20 03:15:06;;;;;;;5.35;2.83;;;;;;;;;;4880657;29;20055;-91
2023/04/20 03:17:35;;;;;;;13.82;2.92;;;;;;;;;;4865750;29;20490;-91
2023/04/20 03:20:01;;;;;;;12.18;3.38;;;;;;;;;;4865370;29;20045;-91
2023/04/20 03:22:27;;;;;;;8.02;2.67;;;;;;;;;;4865408;29;20049;-90
2023/04/20 03:24:53;;;;;;;6.25;2.70;;;;;;;;;;4866063;29;20108;-91
2023/04/20 03:27:19;;;;;;;10.93;3.00;;;;;;;;;;4883573;29;20048;-91
2023/04/20 03:29:47;;;;;;;6.45;2.85;;;;;;;;;;4899397;29;20055;-91
2023/04/20 03:32:13;;;;;;;8.70;2.58;;;;;;;;;;4869172;29;20087;-91
2023/04/20 03:34:39;;;;;;;11.07;2.90;;;;;;;;;;4869185;29;20052;-91
2023/04/20 03:37:06;;;;;;;8.70;2.83;;;;;;;;;;4868916;29;20048;-91
2023/04/20 03:39:35;;;;;;;6.85;3.00;;;;;;;;;;4868753;29;20048;-90
2023/04/20 03:42:05;;;;;;;7.68;3.50;;;;;;;;;;4883858;29;20051;-90
2023/04/20 03:44:34;;;;;;;17.38;4.07;;;;;;;;;;4869275;29;20389;-91
2023/04/20 03:47:00;;;;;;;8.20;2.80;;;;;;;;;;4883368;29;20059;-92
2023/04/20 03:49:26;;;;;;;5.47;3.20;;;;;;;;;;4883569;29;20092;-92
2023/04/20 03:51:52;;;;;;;5.38;2.25;;;;;;;;;;4868120;29;20505;-91
2023/04/20 03:54:18;;;;;;;4.93;2.55;;;;;;;;;;4883752;29;20521;-91
2023/04/20 03:56:44;;;;;;;8.10;3.03;;;;;;;;;;4867758;29;20055;-91
2023/04/20 03:59:11;;;;;;;7.10;2.92;;;;;;;;;;4899122;29;20052;-91
2023/04/20 04:01:38;;;;;;;3.20;2.25;;;;;;;;;;4883066;29;20131;-91
2023/04/20 04:04:04;;;;;;;3.47;2.22;;;;;;;;;;4883341;29;20048;-91
2023/04/20 04:06:31;;;;;;;6.28;2.72;;;;;;;;;;4883200;29;20052;-91
2023/04/20 04:08:59;;;;;;;4.63;2.40;;;;;;;;;;4882693;29;20077;-91
2023/04/20 04:11:28;;;;;;;5.30;2.72;;;;;;;;;;4868012;29;20494;-92
2023/04/20 04:13:54;;;;;;;5.35;2.53;;;;;;;;;;4883882;29;20108;-91
2023/04/20 04:16:20;;;;;;;7.82;2.35;;;;;;;;;;4868061;29;20070;-91
2023/04/20 04:18:47;;;;;;;4.75;1.90;;;;;;;;;;4883285;29;20052;-91
2023/04/20 04:21:13;;;;;;;5.28;2.20;;;;;;;;;;4883077;29;20525;-91
2023/04/20 04:23:41;;;;;;;5.38;1.88;;;;;;;;;;4882892;29;20044;-91
2023/04/20 04:26:07;;;;;;;2.53;1.75;;;;;;;;;;4883129;29;20509;-92
2023/04/20 04:28:33;;;;;;;3.10;2.08;;;;;;;;;;4883057;29;20052;-92
2023/04/20 04:31:05;;;;;;;8.18;2.35;;;;;;;;;;4882731;29;20048;-91
2023/04/20 04:33:33;;;;;;;2.15;1.67;;;;;;;;;;4882859;29;20452;-91
2023/04/20 04:35:59;;;;;;;5.93;2.75;;;;;;;;;;4867038;29;20049;-92
2023/04/20 04:38:25;;;;;;;5.15;2.15;;;;;;;;;;4867172;29;20406;-92
2023/04/20 04:40:52;;;;;;;4.07;1.92;;;;;;;;;;4882784;29;20048;-91
2023/04/20 04:43:20;;;;;;;6.97;2.45;;;;;;;;;;4882846;29;20139;-91
2023/04/20 04:45:46;;;;;;;4.70;1.92;;;;;;;;;;4882525;29;20131;-92
2023/04/20 04:48:12;;;;;;;3.70;1.90;;;;;;;;;;4882705;29;20076;-91
2023/04/20 04:50:39;;;;;;;3.97;2.35;;;;;;;;;;4883612;29;20051;-91
2023/04/20 04:53:05;;;;;;;2.83;2.20;;;;;;;;;;4884267;29;20052;-91
2023/04/20 04:55:31;;;;;;;8.35;2.38;;;;;;;;;;4884139;29;20084;-91
2023/04/20 04:57:57;;;;;;;3.22;1.77;;;;;;;;;;4898054;29;20517;-91
2023/04/20 05:03:03;;;;;;;3.25;2.20;;;;;;;;;;4643567;27;20454;-90
2023/04/20 05:05:35;;;;;;;4.05;1.90;;;;;;;;;;4882475;29;20413;-92
2023/04/20 05:08:08;;;;;;;5.07;2.30;;;;;;;;;;4867143;29;20060;-91
2023/04/20 05:10:37;;;;;;;2.05;1.85;;;;;;;;;;4897979;29;20060;-91
2023/04/20 05:16:45;;;;;;;3.45;2.13;;;;;;;;;;4988187;23;20045;-90
2023/04/20 05:19:52;;;;;;;;;;;;;;;;;;;;;
2023/04/20 05:30:25;;;;;;;2.80;1.85;;;;;;;;;;5449618;23;20049;-91
2023/04/20 05:36:59;;;;;;;;;;;;;;;;;;;;;
2023/04/20 05:57:47;;;;;;;10.32;3.67;;;;;;;;;;4894046;29;20064;-94
2023/04/20 06:05:44;;;;;;;6.28;2.20;;;;;;;;;;5503780;23;20075;-92
2023/04/20 17:54:04;;;;;;;;;;;;;;;;;;;;;
2023/04/20 18:42:21;;;;;;;11.15;8.10;;;;;;;;;;4954486;23;20064;-92
2023/04/20 19:24:01;;;;;;;10.38;7.03;;;;;;;;;;4847670;29;20078;-95
2023/04/20 21:16:24;;;;;;;15.70;11.98;;;9.60;99.90;;;;;;5961575;23;20028;31
2023/04/20 21:18:51;;;;;;;17.30;11.35;;;;;;;;;;4895109;29;20064;-93
2023/04/20 21:21:17;;;;;;;17.13;11.25;;;;;;;;;;4883425;29;20056;-95
2023/04/20 21:23:43;;;;;;;16.95;11.73;;;;;;;;;;4882666;29;20061;-94
2023/04/20 21:26:09;;;;;;;19.40;11.45;;;;;;;;;;4882520;29;20056;-95
2023/04/20 21:28:35;;;;;;;19.77;12.18;;;;;;;;;;4866546;29;20052;-95
2023/04/20 21:31:02;;;;;;;17.85;12.02;;;;;;;;;;4866649;29;20509;-93
2023/04/20 21:33:32;;;;;;;16.50;12.05;;;;;;;;;;4867057;29;20084;-94
2023/04/20 21:35:59;;;;;;;15.52;11.25;;;;;;;;;;4866906;29;20051;-94
2023/04/20 21:38:27;;;;;;;25.35;12.68;;;;;;;;;;4867095;29;20053;-94
2023/04/20 21:40:54;;;;;;;17.80;11.35;;;;;;;;;;4866875;29;20045;-94
2023/04/20 21:43:23;;;;;;;15.98;12.07;;;;;;;;;;4866575;29;20048;-93
2023/04/20 21:45:51;;;;;;;15.23;11.05;;;;;;;;;;4865814;29;20631;-92
2023/04/20 21:48:20;;;;;;;17.10;10.80;;;;;;;;;;4868077;29;20050;-94
2023/04/20 21:50:46;;;;;;;18.15;11.50;;;;;;;;;;4867105;29;20067;-93
2023/04/20 21:53:13;;;;;;;13.73;10.45;;;;;;;;;;4866851;29;20056;-94
2023/04/20 21:55:39;;;;;;;14.32;11.13;;;;;;;;;;4866486;29;20478;-93
2023/04/20 21:58:08;;;;;;;19.88;12.10;;;;;;;;;;4866628;29;20536;-93
2023/04/20 22:00:34;;;;;;;17.75;11.90;;;;;;;;;;4866159;29;20060;-94
2023/04/20 22:03:00;;;;;;;16.90;11.77;;;;;;;;;;4866553;29;20058;-96
2023/04/20 22:05:28;;;;;;;15.95;11.60;;;;;;;;;;4866571;29;20135;-93
2023/04/20 22:07:56;;;;;;;18.17;12.20;;;;;;;;;;4866575;29;20502;-94
2023/04/20 22:10:23;;;;;;;17.25;11.85;;;;;;;;;;4865970;29;20052;-95
2023/04/20 22:12:49;;;;;;;18.75;12.07;;;;;;;;;;4866873;29;20052;-93
2023/04/20 22:15:15;;;;;;;17.55;12.23;;;;;;;;;;4867657;29;20054;-96
2023/04/20 22:17:44;;;;;;;25.65;11.85;;;;;;;;;;4868310;29;20044;-96
2023/04/20 22:20:10;;;;;;;19.48;12.45;;;;;;;;;;4866788;29;20139;-96
2023/04/20 22:22:37;;;;;;;19.67;12.15;;;;;;;;;;4866816;29;20055;-96
2023/04/20 22:25:04;;;;;;;17.65;12.40;;;;;;;;;;4882064;29;20095;-96
2023/04/20 22:27:34;;;;;;;24.17;13.38;;;;;;;;;;4866859;29;20115;-95
2023/04/20 22:30:00;;;;;;;22.83;12.68;;;;;;;;;;4868105;29;20103;-95
2023/04/20 22:32:26;;;;;;;17.63;12.77;;;;;;;;;;4876817;29;20055;-96
2023/04/20 22:34:52;;;;;;;19.88;14.25;;;;;;;;;;4878498;29;20048;-96
2023/04/20 22:37:18;;;;;;;21.52;12.07;;;;;;;;;;4890187;29;20049;-96
2023/04/20 22:39:52;;;;;;;21.10;14.05;;;;;;;;;;4886074;29;20055;-94
2023/04/20 22:42:30;;;;;;;21.85;14.70;;;;;;;;;;4907736;29;20096;-93
2023/04/20 22:45:05;;;;;;;24.83;16.35;;;;;;;;;;4890862;29;20044;-96
2023/04/20 22:47:34;;;;;;;30.38;15.75;;;;;;;;;;4904282;29;20406;-96
2023/04/20 22:50:00;;;;;;;21.55;15.85;;;;;;;;;;4889181;29;20055;-96
2023/04/20 22:52:26;;;;;;;24.23;15.27;;;;;;;;;;4872486;29;20041;-96
2023/04/20 22:54:52;;;;;;;22.90;15.77;;;;;;;;;;4887958;29;20107;-96
2023/04/20 22:57:19;;;;;;;28.02;16.30;;;;;;;;;;4873568;29;20041;-96
2023/04/20 22:59:47;;;;;;;23.95;16.67;;;;;;;;;;4873336;29;20049;-95
2023/04/20 23:02:13;;;;;;;23.90;17.10;;;;;;;;;;4873507;29;20100;-96
2023/04/20 23:04:40;;;;;;;25.45;18.08;;;;;;;;;;4872583;29;20052;-96
2023/04/20 23:07:07;;;;;;;23.98;16.77;;;;;;;;;;4872720;29;20073;-96
2023/04/20 23:09:36;;;;;;;22.08;16.17;;;;;;;;;;4872232;29;20084;-96
2023/04/20 23:12:03;;;;;;;27.38;16.48;;;;;;;;;;4874281;29;20116;-96
2023/04/20 23:14:29;;;;;;;29.60;18.60;;;;;;;;;;4872532;29;20044;-96
2023/04/20 23:16:55;;;;;;;26.60;16.25;;;;;;;;;;4873185;29;20498;-95
2023/04/20 23:19:21;;;;;;;24.63;16.63;;;;;;;;;;4873573;29;20060;-96
2023/04/20 23:21:47;;;;;;;25.17;16.83;;;;;;;;;;4874185;29;20239;-95
2023/04/20 23:24:13;;;;;;;27.27;16.65;;;;;;;;;;4877181;29;20044;-95
2023/04/20 23:26:39;;;;;;;28.17;17.73;;;;;;;;;;4871304;29;20080;-92
2023/04/20 23:29:06;;;;;;;24.27;16.73;;;;;;;;;;4871328;29;20473;-92
2023/04/20 23:31:35;;;;;;;23.48;16.38;;;;;;;;;;4871242;29;20462;-91
2023/04/20 23:34:04;;;;;;;32.83;17.70;;;;;;;;;;4871197;29;20048;-91
2023/04/20 23:36:31;;;;;;;30.33;17.02;;;;;;;;;;4871226;29;20147;-91
2023/04/20 23:38:57;;;;;;;24.20;16.25;;;;;;;;;;4870964;29;20048;-91
2023/04/20 23:41:23;;;;;;;25.23;16.67;;;;;;;;;;4869971;29;20524;-91
2023/04/20 23:43:49;;;;;;;22.98;16.42;;;;;;;;;;4867785;29;20056;-91
2023/04/20 23:46:17;;;;;;;25.30;16.00;;;;;;;;;;4868249;29;20041;-92
2023/04/20 23:48:43;;;;;;;24.25;13.95;;;;;;;;;;4868244;29;20059;-92
2023/04/20 23:51:09;;;;;;;27.13;15.45;;;;;;;;;;4867846;29;20084;-91
2023/04/20 23:53:36;;;;;;;23.98;15.07;;;;;;;;;;4868310;29;20048;-92
2023/04/20 23:56:02;;;;;;;26.60;15.52;;;;;;;;;;4868065;29;20040;-92
2023/04/20 23:58:28;;;;;;;27.63;16.58;;;;;;;;;;4867628;29;20048;-91
